createdAt,value
2018-06-05T00:00:00.419Z,0
2018-06-05T00:00:59.910Z,0
2018-06-05T00:02:00.159Z,0
2018-06-05T00:03:00.412Z,0
2018-06-05T00:04:00.410Z,0
2018-06-05T00:05:00.143Z,0
2018-06-05T00:06:00.660Z,0
2018-06-05T00:07:00.128Z,0
2018-06-05T00:07:59.870Z,0
2018-06-05T00:09:00.374Z,0
2018-06-05T00:10:00.113Z,0
2018-06-05T00:11:00.361Z,0
2018-06-05T00:12:00.375Z,0
2018-06-05T00:12:59.836Z,0
2018-06-05T00:13:59.828Z,0
2018-06-05T00:15:00.082Z,0
2018-06-05T00:16:00.590Z,0
2018-06-05T00:17:00.578Z,0
2018-06-05T00:18:00.322Z,0
2018-06-05T00:19:00.566Z,0
2018-06-05T00:20:00.581Z,0
2018-06-05T00:21:00.298Z,0
2018-06-05T00:22:00.297Z,0
2018-06-05T00:23:00.546Z,0
2018-06-05T00:23:59.773Z,0
2018-06-05T00:25:00.538Z,0
2018-06-05T00:26:00.529Z,0
2018-06-05T00:27:00.710Z,0
2018-06-05T00:28:00.264Z,0
2018-06-05T00:29:00.003Z,0
2018-06-05T00:29:59.994Z,0
2018-06-05T00:31:00.247Z,0
2018-06-05T00:31:59.982Z,0
2018-06-05T00:33:00.235Z,0
2018-06-05T00:33:59.970Z,0
2018-06-05T00:35:00.223Z,0
2018-06-05T00:36:00.472Z,0
2018-06-05T00:37:00.469Z,0
2018-06-05T00:38:00.205Z,0
2018-06-05T00:39:00.451Z,0
2018-06-05T00:39:59.685Z,0
2018-06-05T00:41:00.182Z,0
2018-06-05T00:42:00.176Z,0
2018-06-05T00:43:00.172Z,0
2018-06-05T00:44:00.163Z,0
2018-06-05T00:44:59.649Z,0
2018-06-05T00:46:00.412Z,0
2018-06-05T00:47:00.148Z,0
2018-06-05T00:48:00.400Z,0
2018-06-05T00:48:59.879Z,0
2018-06-05T00:49:59.875Z,0
2018-06-05T00:50:59.860Z,0
2018-06-05T00:52:00.375Z,0
2018-06-05T00:52:59.851Z,0
2018-06-05T00:54:00.363Z,0
2018-06-05T00:55:00.361Z,0
2018-06-05T00:55:59.575Z,0
2018-06-05T00:57:00.087Z,0
2018-06-05T00:57:59.819Z,0
2018-06-05T00:58:59.816Z,0
2018-06-05T00:59:59.809Z,0
2018-06-05T01:01:00.324Z,0
2018-06-05T01:02:00.056Z,0
2018-06-05T01:03:00.306Z,0
2018-06-05T01:03:59.782Z,0
2018-06-05T01:05:00.299Z,0
2018-06-05T01:06:00.031Z,0
2018-06-05T01:07:00.280Z,0
2018-06-05T01:08:00.028Z,0
2018-06-05T01:09:00.038Z,0
2018-06-05T01:09:59.749Z,0
2018-06-05T01:11:00.253Z,0
2018-06-05T01:11:59.996Z,0
2018-06-05T01:12:59.763Z,0
2018-06-05T01:14:00.234Z,0
2018-06-05T01:14:59.969Z,0
2018-06-05T01:15:59.715Z,0
2018-06-05T01:16:59.964Z,0
2018-06-05T01:17:59.438Z,0
2018-06-05T01:18:59.956Z,0
2018-06-05T01:19:59.945Z,0
2018-06-05T01:20:59.679Z,0
2018-06-05T01:21:59.922Z,0
2018-06-05T01:23:00.188Z,0
2018-06-05T01:24:00.173Z,0
2018-06-05T01:24:59.908Z,0
2018-06-05T01:26:00.173Z,0
2018-06-05T01:26:59.638Z,0
2018-06-05T01:28:00.158Z,0
2018-06-05T01:28:59.890Z,0
2018-06-05T01:29:59.881Z,0
2018-06-05T01:30:59.612Z,0
2018-06-05T01:31:59.864Z,0
2018-06-05T01:32:59.856Z,0
2018-06-05T01:33:59.594Z,0
2018-06-05T01:34:59.864Z,0
2018-06-05T01:36:00.101Z,0
2018-06-05T01:37:00.087Z,0
2018-06-05T01:38:00.083Z,0
2018-06-05T01:39:00.069Z,0
2018-06-05T01:39:59.813Z,0
2018-06-05T01:40:59.808Z,0
2018-06-05T01:42:00.054Z,0
2018-06-05T01:42:59.535Z,0
2018-06-05T01:44:00.052Z,0
2018-06-05T01:45:00.037Z,0
2018-06-05T01:45:59.771Z,0
2018-06-05T01:46:59.769Z,0
2018-06-05T01:47:59.766Z,0
2018-06-05T01:48:59.497Z,0
2018-06-05T01:49:59.804Z,0
2018-06-05T01:50:59.994Z,0
2018-06-05T01:51:59.741Z,0
2018-06-05T01:52:59.471Z,0
2018-06-05T01:53:59.724Z,0
2018-06-05T01:54:59.713Z,0
2018-06-05T01:55:59.492Z,0
2018-06-05T01:56:59.442Z,0
2018-06-05T01:57:59.947Z,0
2018-06-05T01:58:58.922Z,0
2018-06-05T01:59:59.940Z,0
2018-06-05T02:00:59.680Z,0
2018-06-05T02:01:59.937Z,0
2018-06-05T02:02:59.659Z,0
2018-06-05T02:03:59.913Z,0
2018-06-05T02:04:59.395Z,0
2018-06-05T02:05:59.894Z,0
2018-06-05T02:06:59.632Z,0
2018-06-05T02:07:59.626Z,0
2018-06-05T02:08:59.114Z,0
2018-06-05T02:09:59.610Z,0
2018-06-05T02:10:59.095Z,0
2018-06-05T02:11:59.858Z,0
2018-06-05T02:12:59.337Z,0
2018-06-05T02:13:59.845Z,0
2018-06-05T02:14:59.615Z,0
2018-06-05T02:15:59.583Z,0
2018-06-05T02:16:59.314Z,0
2018-06-05T02:17:59.572Z,0
2018-06-05T02:18:59.299Z,0
2018-06-05T02:19:59.296Z,0
2018-06-05T02:20:59.800Z,0
2018-06-05T02:21:59.531Z,0
2018-06-05T02:22:59.269Z,0
2018-06-05T02:23:59.520Z,0
2018-06-05T02:24:59.510Z,0
2018-06-05T02:25:59.513Z,0
2018-06-05T02:26:59.770Z,0
2018-06-05T02:27:59.492Z,0
2018-06-05T02:28:58.718Z,0
2018-06-05T02:29:59.484Z,0
2018-06-05T02:30:59.478Z,0
2018-06-05T02:31:58.962Z,0
2018-06-05T02:32:58.939Z,0
2018-06-05T02:33:58.944Z,0
2018-06-05T02:34:59.449Z,0
2018-06-05T02:35:59.703Z,0
2018-06-05T02:36:58.920Z,0
2018-06-05T02:37:59.432Z,0
2018-06-05T02:38:59.425Z,0
2018-06-05T02:39:59.422Z,0
2018-06-05T02:40:59.404Z,0
2018-06-05T02:41:59.653Z,0
2018-06-05T02:42:59.139Z,0
2018-06-05T02:43:59.387Z,0
2018-06-05T02:44:59.386Z,0
2018-06-05T02:45:59.641Z,0
2018-06-05T02:46:59.364Z,0
2018-06-05T02:47:59.096Z,0
2018-06-05T02:48:59.611Z,0
2018-06-05T02:49:59.086Z,0
2018-06-05T02:50:59.082Z,0
2018-06-05T02:51:59.615Z,0
2018-06-05T02:52:58.809Z,0
2018-06-05T02:53:59.064Z,0
2018-06-05T02:54:59.306Z,0
2018-06-05T02:55:58.791Z,0
2018-06-05T02:56:59.556Z,5
2018-06-05T02:57:59.294Z,5
2018-06-05T02:58:59.324Z,5
2018-06-05T02:59:59.577Z,5
2018-06-05T03:00:58.761Z,5
2018-06-05T03:01:59.525Z,5
2018-06-05T03:02:59.000Z,5
2018-06-05T03:03:59.261Z,5
2018-06-05T03:04:58.983Z,5
2018-06-05T03:05:58.989Z,5
2018-06-05T03:06:58.968Z,10
2018-06-05T03:07:59.232Z,10
2018-06-05T03:08:59.475Z,10
2018-06-05T03:09:58.946Z,10
2018-06-05T03:10:58.941Z,10
2018-06-05T03:11:58.679Z,10
2018-06-05T03:12:59.444Z,10
2018-06-05T03:13:59.481Z,10
2018-06-05T03:14:59.171Z,10
2018-06-05T03:15:59.423Z,15
2018-06-05T03:16:59.159Z,15
2018-06-05T03:17:59.411Z,15
2018-06-05T03:18:59.151Z,15
2018-06-05T03:19:58.872Z,10
2018-06-05T03:20:59.130Z,10
2018-06-05T03:21:59.111Z,10
2018-06-05T03:22:59.111Z,10
2018-06-05T03:23:59.455Z,10
2018-06-05T03:24:59.096Z,10
2018-06-05T03:25:59.357Z,10
2018-06-05T03:26:59.084Z,15
2018-06-05T03:27:59.076Z,15
2018-06-05T03:28:58.815Z,15
2018-06-05T03:29:59.323Z,15
2018-06-05T03:30:59.062Z,15
2018-06-05T03:31:59.058Z,15
2018-06-05T03:32:58.530Z,15
2018-06-05T03:33:59.126Z,15
2018-06-05T03:34:58.454Z,15
2018-06-05T03:35:59.025Z,15
2018-06-05T03:36:58.756Z,15
2018-06-05T03:37:58.751Z,15
2018-06-05T03:38:59.265Z,15
2018-06-05T03:39:58.747Z,15
2018-06-05T03:40:59.453Z,15
2018-06-05T03:41:58.986Z,15
2018-06-05T03:42:59.236Z,15
2018-06-05T03:43:58.719Z,15
2018-06-05T03:44:58.455Z,15
2018-06-05T03:45:58.959Z,20
2018-06-05T03:46:59.209Z,20
2018-06-05T03:47:58.950Z,20
2018-06-05T03:48:59.201Z,20
2018-06-05T03:49:59.191Z,20
2018-06-05T03:50:58.668Z,20
2018-06-05T03:51:58.927Z,20
2018-06-05T03:52:58.663Z,20
2018-06-05T03:53:59.172Z,20
2018-06-05T03:54:59.165Z,20
2018-06-05T03:55:59.155Z,20
2018-06-05T03:56:59.160Z,20
2018-06-05T03:57:58.639Z,20
2018-06-05T03:58:59.190Z,20
2018-06-05T03:59:58.875Z,20
2018-06-05T04:00:58.881Z,20
2018-06-05T04:01:58.611Z,20
2018-06-05T04:02:59.121Z,25
2018-06-05T04:03:58.598Z,25
2018-06-05T04:04:58.852Z,25
2018-06-05T04:05:58.588Z,25
2018-06-05T04:06:59.104Z,25
2018-06-05T04:07:58.568Z,25
2018-06-05T04:08:59.083Z,25
2018-06-05T04:09:58.814Z,25
2018-06-05T04:10:58.836Z,30
2018-06-05T04:11:58.813Z,30
2018-06-05T04:12:58.550Z,30
2018-06-05T04:13:58.547Z,30
2018-06-05T04:14:58.793Z,30
2018-06-05T04:15:58.533Z,30
2018-06-05T04:16:59.040Z,30
2018-06-05T04:17:59.041Z,30
2018-06-05T04:18:58.768Z,35
2018-06-05T04:19:58.761Z,35
2018-06-05T04:20:57.990Z,35
2018-06-05T04:21:59.018Z,35
2018-06-05T04:22:58.493Z,35
2018-06-05T04:23:58.487Z,40
2018-06-05T04:24:58.998Z,35
2018-06-05T04:25:58.483Z,40
2018-06-05T04:26:58.513Z,40
2018-06-05T04:27:58.466Z,40
2018-06-05T04:28:58.461Z,40
2018-06-05T04:29:58.725Z,40
2018-06-05T04:30:58.196Z,40
2018-06-05T04:31:58.702Z,40
2018-06-05T04:32:58.699Z,40
2018-06-05T04:33:58.687Z,40
2018-06-05T04:34:58.682Z,40
2018-06-05T04:35:58.425Z,40
2018-06-05T04:36:58.809Z,35
2018-06-05T04:37:58.666Z,35
2018-06-05T04:38:58.660Z,40
2018-06-05T04:39:58.149Z,40
2018-06-05T04:40:58.398Z,40
2018-06-05T04:41:58.659Z,40
2018-06-05T04:42:58.407Z,40
2018-06-05T04:43:58.911Z,40
2018-06-05T04:44:58.635Z,45
2018-06-05T04:45:58.641Z,50
2018-06-05T04:46:58.113Z,50
2018-06-05T04:47:58.364Z,50
2018-06-05T04:48:58.101Z,50
2018-06-05T04:49:58.101Z,55
2018-06-05T04:50:58.865Z,55
2018-06-05T04:51:58.602Z,55
2018-06-05T04:52:58.848Z,55
2018-06-05T04:53:58.080Z,60
2018-06-05T04:54:58.584Z,55
2018-06-05T04:55:58.590Z,55
2018-06-05T04:56:58.327Z,60
2018-06-05T04:57:58.827Z,60
2018-06-05T04:58:58.818Z,55
2018-06-05T04:59:58.816Z,55
2018-06-05T05:00:58.295Z,55
2018-06-05T05:01:58.552Z,55
2018-06-05T05:02:58.282Z,55
2018-06-05T05:03:58.283Z,60
2018-06-05T05:04:58.792Z,55
2018-06-05T05:05:58.268Z,55
2018-06-05T05:06:58.270Z,55
2018-06-05T05:07:58.771Z,50
2018-06-05T05:08:58.269Z,55
2018-06-05T05:09:58.508Z,55
2018-06-05T05:10:58.242Z,65
2018-06-05T05:11:58.245Z,65
2018-06-05T05:12:58.750Z,65
2018-06-05T05:13:58.751Z,65
2018-06-05T05:14:58.228Z,65
2018-06-05T05:15:58.477Z,75
2018-06-05T05:16:58.742Z,75
2018-06-05T05:17:58.209Z,75
2018-06-05T05:18:58.208Z,75
2018-06-05T05:19:58.720Z,75
2018-06-05T05:20:58.454Z,75
2018-06-05T05:21:57.936Z,75
2018-06-05T05:22:58.442Z,75
2018-06-05T05:23:58.696Z,75
2018-06-05T05:24:58.445Z,85
2018-06-05T05:25:58.427Z,80
2018-06-05T05:26:58.421Z,70
2018-06-05T05:27:58.171Z,75
2018-06-05T05:28:58.688Z,80
2018-06-05T05:29:58.426Z,80
2018-06-05T05:30:58.656Z,80
2018-06-05T05:31:58.660Z,85
2018-06-05T05:32:58.434Z,90
2018-06-05T05:33:58.647Z,95
2018-06-05T05:34:57.871Z,95
2018-06-05T05:35:58.533Z,95
2018-06-05T05:36:58.118Z,95
2018-06-05T05:37:58.379Z,95
2018-06-05T05:38:57.852Z,90
2018-06-05T05:39:58.614Z,85
2018-06-05T05:40:58.104Z,85
2018-06-05T05:41:58.620Z,85
2018-06-05T05:42:58.357Z,85
2018-06-05T05:43:57.830Z,85
2018-06-05T05:44:58.595Z,80
2018-06-05T05:45:58.593Z,85
2018-06-05T05:46:58.337Z,90
2018-06-05T05:47:58.345Z,95
2018-06-05T05:48:58.316Z,95
2018-06-05T05:49:58.065Z,90
2018-06-05T05:50:58.052Z,85
2018-06-05T05:51:57.799Z,80
2018-06-05T05:52:58.045Z,80
2018-06-05T05:53:58.555Z,75
2018-06-05T05:54:58.754Z,70
2018-06-05T05:55:58.553Z,65
2018-06-05T05:56:58.284Z,65
2018-06-05T05:57:58.281Z,65
2018-06-05T05:58:58.017Z,70
2018-06-05T05:59:58.013Z,75
2018-06-05T06:00:58.269Z,75
2018-06-05T06:01:58.263Z,80
2018-06-05T06:02:58.513Z,85
2018-06-05T06:03:58.312Z,85
2018-06-05T06:04:58.246Z,85
2018-06-05T06:05:57.988Z,85
2018-06-05T06:06:57.726Z,85
2018-06-05T06:07:58.492Z,85
2018-06-05T06:08:57.716Z,85
2018-06-05T06:09:58.487Z,85
2018-06-05T06:10:58.687Z,85
2018-06-05T06:11:58.222Z,90
2018-06-05T06:12:57.951Z,100
2018-06-05T06:13:58.471Z,105
2018-06-05T06:14:57.943Z,105
2018-06-05T06:15:57.682Z,110
2018-06-05T06:16:58.189Z,115
2018-06-05T06:17:58.186Z,115
2018-06-05T06:18:58.179Z,115
2018-06-05T06:19:58.436Z,115
2018-06-05T06:20:58.436Z,115
2018-06-05T06:21:58.429Z,110
2018-06-05T06:22:57.656Z,110
2018-06-05T06:23:58.168Z,110
2018-06-05T06:24:58.416Z,105
2018-06-05T06:25:57.929Z,115
2018-06-05T06:26:57.921Z,115
2018-06-05T06:27:57.888Z,110
2018-06-05T06:28:58.145Z,110
2018-06-05T06:29:58.408Z,105
2018-06-05T06:30:58.132Z,105
2018-06-05T06:31:57.614Z,105
2018-06-05T06:32:58.379Z,105
2018-06-05T06:33:58.118Z,100
2018-06-05T06:34:57.857Z,100
2018-06-05T06:35:58.364Z,100
2018-06-05T06:36:58.368Z,100
2018-06-05T06:37:58.100Z,105
2018-06-05T06:38:58.097Z,110
2018-06-05T06:39:57.579Z,110
2018-06-05T06:40:58.348Z,110
2018-06-05T06:41:57.828Z,110
2018-06-05T06:42:58.078Z,105
2018-06-05T06:43:58.072Z,110
2018-06-05T06:44:58.064Z,110
2018-06-05T06:45:58.066Z,115
2018-06-05T06:46:58.062Z,115
2018-06-05T06:47:58.316Z,120
2018-06-05T06:48:58.877Z,120
2018-06-05T06:49:57.534Z,115
2018-06-05T06:50:58.297Z,120
2018-06-05T06:51:58.297Z,110
2018-06-05T06:52:58.288Z,110
2018-06-05T06:53:58.034Z,110
2018-06-05T06:54:57.775Z,105
2018-06-05T06:55:58.022Z,105
2018-06-05T06:56:57.758Z,110
2018-06-05T06:57:57.503Z,120
2018-06-05T06:58:58.002Z,120
2018-06-05T06:59:57.750Z,125
2018-06-05T07:00:57.737Z,135
2018-06-05T07:01:57.479Z,135
2018-06-05T07:02:58.252Z,145
2018-06-05T07:03:57.472Z,135
2018-06-05T07:04:57.723Z,140
2018-06-05T07:05:58.231Z,140
2018-06-05T07:06:58.231Z,145
2018-06-05T07:07:57.971Z,150
2018-06-05T07:08:57.449Z,145
2018-06-05T07:09:57.697Z,155
2018-06-05T07:10:57.701Z,165
2018-06-05T07:11:57.443Z,175
2018-06-05T07:12:57.947Z,175
2018-06-05T07:13:58.202Z,180
2018-06-05T07:14:57.934Z,190
2018-06-05T07:15:57.417Z,205
2018-06-05T07:16:57.931Z,235
2018-06-05T07:17:57.937Z,230
2018-06-05T07:18:58.173Z,230
2018-06-05T07:19:58.185Z,230
2018-06-05T07:20:57.399Z,205
2018-06-05T07:21:57.647Z,205
2018-06-05T07:22:57.907Z,180
2018-06-05T07:23:57.948Z,185
2018-06-05T07:24:58.144Z,200
2018-06-05T07:25:58.157Z,215
2018-06-05T07:26:58.140Z,225
2018-06-05T07:27:57.622Z,235
2018-06-05T07:28:57.876Z,245
2018-06-05T07:29:57.611Z,245
2018-06-05T07:30:58.129Z,255
2018-06-05T07:31:57.606Z,260
2018-06-05T07:32:58.163Z,260
2018-06-05T07:33:57.858Z,280
2018-06-05T07:34:57.856Z,280
2018-06-05T07:35:57.750Z,295
2018-06-05T07:36:57.850Z,285
2018-06-05T07:37:57.578Z,285
2018-06-05T07:38:57.581Z,275
2018-06-05T07:39:57.832Z,290
2018-06-05T07:40:57.835Z,320
2018-06-05T07:41:57.570Z,305
2018-06-05T07:42:57.559Z,345
2018-06-05T07:43:57.820Z,385
2018-06-05T07:44:57.822Z,370
2018-06-05T07:45:58.068Z,375
2018-06-05T07:46:57.813Z,375
2018-06-05T07:47:57.810Z,355
2018-06-05T07:48:58.067Z,365
2018-06-05T07:49:57.842Z,380
2018-06-05T07:50:57.796Z,345
2018-06-05T07:51:57.543Z,350
2018-06-05T07:52:57.789Z,345
2018-06-05T07:53:57.786Z,340
2018-06-05T07:54:57.780Z,305
2018-06-05T07:55:57.793Z,300
2018-06-05T07:56:57.522Z,280
2018-06-05T07:57:57.262Z,285
2018-06-05T07:58:58.033Z,325
2018-06-05T07:59:57.767Z,400
2018-06-05T08:00:57.764Z,410
2018-06-05T08:01:57.761Z,360
2018-06-05T08:02:58.017Z,370
2018-06-05T08:03:58.022Z,320
2018-06-05T08:04:57.760Z,315
2018-06-05T08:05:58.004Z,310
2018-06-05T08:06:57.752Z,320
2018-06-05T08:07:57.237Z,315
2018-06-05T08:08:57.487Z,320
2018-06-05T08:09:57.742Z,310
2018-06-05T08:10:57.998Z,295
2018-06-05T08:11:58.359Z,265
2018-06-05T08:12:57.738Z,270
2018-06-05T08:13:58.000Z,290
2018-06-05T08:14:57.728Z,335
2018-06-05T08:15:57.739Z,385
2018-06-05T08:16:57.468Z,420
2018-06-05T08:17:57.982Z,490
2018-06-05T08:18:57.980Z,565
2018-06-05T08:19:57.979Z,545
2018-06-05T08:20:57.718Z,465
2018-06-05T08:21:57.196Z,425
2018-06-05T08:22:57.527Z,365
2018-06-05T08:23:57.978Z,320
2018-06-05T08:24:57.967Z,335
2018-06-05T08:25:57.451Z,390
2018-06-05T08:26:57.709Z,405
2018-06-05T08:27:57.449Z,375
2018-06-05T08:28:58.001Z,365
2018-06-05T08:29:57.701Z,365
2018-06-05T08:30:57.465Z,380
2018-06-05T08:31:57.953Z,385
2018-06-05T08:32:57.696Z,360
2018-06-05T08:33:57.734Z,345
2018-06-05T08:34:57.688Z,385
2018-06-05T08:35:57.949Z,385
2018-06-05T08:36:57.688Z,360
2018-06-05T08:37:58.198Z,370
2018-06-05T08:38:57.175Z,380
2018-06-05T08:39:57.956Z,385
2018-06-05T08:40:57.946Z,400
2018-06-05T08:41:57.417Z,460
2018-06-05T08:42:57.945Z,485
2018-06-05T08:43:57.178Z,370
2018-06-05T08:44:57.714Z,350
2018-06-05T08:45:57.416Z,385
2018-06-05T08:46:57.924Z,440
2018-06-05T08:47:57.407Z,400
2018-06-05T08:48:57.411Z,355
2018-06-05T08:49:57.658Z,390
2018-06-05T08:50:57.407Z,430
2018-06-05T08:51:57.404Z,380
2018-06-05T08:52:57.919Z,400
2018-06-05T08:53:57.402Z,420
2018-06-05T08:54:57.407Z,480
2018-06-05T08:55:57.911Z,610
2018-06-05T08:56:57.650Z,700
2018-06-05T08:57:57.393Z,755
2018-06-05T08:58:57.395Z,725
2018-06-05T08:59:57.883Z,715
2018-06-05T09:00:57.644Z,570
2018-06-05T09:01:57.137Z,625
2018-06-05T09:02:57.390Z,660
2018-06-05T09:03:57.643Z,685
2018-06-05T09:04:57.900Z,735
2018-06-05T09:05:57.649Z,690
2018-06-05T09:06:57.902Z,680
2018-06-05T09:07:57.385Z,560
2018-06-05T09:08:57.128Z,615
2018-06-05T09:09:57.389Z,695
2018-06-05T09:10:57.498Z,670
2018-06-05T09:11:57.390Z,705
2018-06-05T09:12:58.216Z,730
2018-06-05T09:13:57.643Z,595
2018-06-05T09:14:57.388Z,600
2018-06-05T09:15:57.649Z,630
2018-06-05T09:16:57.699Z,665
2018-06-05T09:17:57.902Z,610
2018-06-05T09:18:57.643Z,585
2018-06-05T09:19:57.385Z,580
2018-06-05T09:20:57.387Z,585
2018-06-05T09:21:57.907Z,515
2018-06-05T09:22:57.644Z,495
2018-06-05T09:23:57.646Z,565
2018-06-05T09:24:57.391Z,600
2018-06-05T09:25:57.657Z,695
2018-06-05T09:26:57.642Z,655
2018-06-05T09:27:57.643Z,605
2018-06-05T09:28:57.762Z,535
2018-06-05T09:29:57.650Z,565
2018-06-05T09:30:57.907Z,555
2018-06-05T09:31:57.399Z,590
2018-06-05T09:32:57.396Z,600
2018-06-05T09:33:57.907Z,530
2018-06-05T09:34:57.915Z,555
2018-06-05T09:35:57.658Z,550
2018-06-05T09:36:57.912Z,515
2018-06-05T09:37:57.913Z,465
2018-06-05T09:38:57.660Z,600
2018-06-05T09:39:57.911Z,530
2018-06-05T09:40:57.405Z,545
2018-06-05T09:41:57.656Z,530
2018-06-05T09:42:57.659Z,545
2018-06-05T09:43:57.663Z,540
2018-06-05T09:44:57.655Z,485
2018-06-05T09:45:57.920Z,430
2018-06-05T09:46:57.859Z,385
2018-06-05T09:47:57.655Z,425
2018-06-05T09:48:57.667Z,575
2018-06-05T09:49:57.172Z,540
2018-06-05T09:50:57.185Z,510
2018-06-05T09:51:57.975Z,450
2018-06-05T09:52:57.664Z,525
2018-06-05T09:53:57.666Z,490
2018-06-05T09:54:57.663Z,505
2018-06-05T09:55:57.414Z,490
2018-06-05T09:56:57.670Z,475
2018-06-05T09:57:58.090Z,370
2018-06-05T09:58:57.412Z,350
2018-06-05T09:59:57.671Z,475
2018-06-05T10:00:57.418Z,460
2018-06-05T10:01:57.514Z,505
2018-06-05T10:02:57.156Z,475
2018-06-05T10:03:58.736Z,485
2018-06-05T10:04:57.673Z,435
2018-06-05T10:05:57.418Z,440
2018-06-05T10:06:57.422Z,440
2018-06-05T10:07:56.904Z,490
2018-06-05T10:08:57.417Z,515
2018-06-05T10:09:57.677Z,530
2018-06-05T10:10:57.465Z,485
2018-06-05T10:11:57.160Z,485
2018-06-05T10:12:57.672Z,480
2018-06-05T10:13:57.935Z,460
2018-06-05T10:14:57.683Z,480
2018-06-05T10:15:57.962Z,475
2018-06-05T10:16:57.674Z,460
2018-06-05T10:17:57.678Z,455
2018-06-05T10:18:57.424Z,450
2018-06-05T10:19:57.681Z,435
2018-06-05T10:20:57.937Z,445
2018-06-05T10:21:57.422Z,510
2018-06-05T10:22:57.430Z,495
2018-06-05T10:23:57.935Z,455
2018-06-05T10:24:57.687Z,480
2018-06-05T10:25:57.685Z,455
2018-06-05T10:26:57.952Z,425
2018-06-05T10:27:57.917Z,530
2018-06-05T10:28:57.966Z,640
2018-06-05T10:29:57.435Z,575
2018-06-05T10:30:57.693Z,580
2018-06-05T10:31:57.702Z,525
2018-06-05T10:32:57.180Z,515
2018-06-05T10:33:57.690Z,520
2018-06-05T10:34:57.958Z,505
2018-06-05T10:35:57.968Z,460
2018-06-05T10:36:57.435Z,525
2018-06-05T10:37:57.708Z,550
2018-06-05T10:38:57.968Z,560
2018-06-05T10:39:57.444Z,570
2018-06-05T10:40:57.751Z,585
2018-06-05T10:41:58.004Z,575
2018-06-05T10:42:57.703Z,510
2018-06-05T10:43:57.189Z,510
2018-06-05T10:44:57.968Z,515
2018-06-05T10:45:57.709Z,570
2018-06-05T10:46:57.453Z,570
2018-06-05T10:47:57.971Z,550
2018-06-05T10:48:57.715Z,530
2018-06-05T10:49:57.976Z,535
2018-06-05T10:50:57.978Z,520
2018-06-05T10:51:57.461Z,520
2018-06-05T10:52:57.464Z,525
2018-06-05T10:53:57.834Z,550
2018-06-05T10:54:57.722Z,580
2018-06-05T10:55:57.474Z,595
2018-06-05T10:56:57.729Z,575
2018-06-05T10:57:57.469Z,600
2018-06-05T10:58:57.982Z,625
2018-06-05T10:59:57.725Z,600
2018-06-05T11:00:56.966Z,545
2018-06-05T11:01:57.996Z,520
2018-06-05T11:02:57.735Z,530
2018-06-05T11:03:57.998Z,565
2018-06-05T11:04:57.739Z,580
2018-06-05T11:05:57.735Z,540
2018-06-05T11:06:57.737Z,515
2018-06-05T11:07:57.741Z,505
2018-06-05T11:08:58.002Z,500
2018-06-05T11:09:57.745Z,520
2018-06-05T11:10:57.769Z,550
2018-06-05T11:11:57.752Z,515
2018-06-05T11:12:57.629Z,510
2018-06-05T11:13:57.751Z,495
2018-06-05T11:14:57.755Z,420
2018-06-05T11:15:57.497Z,365
2018-06-05T11:16:57.765Z,365
2018-06-05T11:17:58.010Z,430
2018-06-05T11:18:58.019Z,445
2018-06-05T11:19:57.755Z,425
2018-06-05T11:20:58.022Z,460
2018-06-05T11:21:57.513Z,435
2018-06-05T11:22:57.248Z,400
2018-06-05T11:23:58.116Z,395
2018-06-05T11:24:57.254Z,425
2018-06-05T11:25:57.254Z,445
2018-06-05T11:26:57.763Z,460
2018-06-05T11:27:57.507Z,375
2018-06-05T11:28:58.043Z,380
2018-06-05T11:29:58.056Z,465
2018-06-05T11:30:58.030Z,530
2018-06-05T11:31:57.516Z,475
2018-06-05T11:32:57.777Z,455
2018-06-05T11:33:58.032Z,465
2018-06-05T11:34:57.779Z,440
2018-06-05T11:35:57.782Z,405
2018-06-05T11:36:57.960Z,425
2018-06-05T11:37:57.774Z,435
2018-06-05T11:38:58.037Z,410
2018-06-05T11:39:57.525Z,425
2018-06-05T11:40:57.264Z,415
2018-06-05T11:41:57.779Z,405
2018-06-05T11:42:57.787Z,395
2018-06-05T11:43:57.785Z,385
2018-06-05T11:44:57.530Z,385
2018-06-05T11:45:57.271Z,400
2018-06-05T11:46:58.015Z,445
2018-06-05T11:47:57.999Z,460
2018-06-05T11:48:58.288Z,460
2018-06-05T11:49:58.054Z,425
2018-06-05T11:50:57.792Z,450
2018-06-05T11:51:57.274Z,395
2018-06-05T11:52:58.048Z,420
2018-06-05T11:53:57.083Z,410
2018-06-05T11:54:57.531Z,345
2018-06-05T11:55:57.823Z,370
2018-06-05T11:56:57.539Z,365
2018-06-05T11:57:57.799Z,375
2018-06-05T11:58:57.792Z,445
2018-06-05T11:59:57.795Z,495
2018-06-05T12:00:57.717Z,565
2018-06-05T12:01:57.827Z,525
2018-06-05T12:02:58.054Z,535
2018-06-05T12:03:57.551Z,540
2018-06-05T12:04:57.290Z,540
2018-06-05T12:05:57.806Z,505
2018-06-05T12:06:57.806Z,470
2018-06-05T12:07:57.294Z,470
2018-06-05T12:08:57.800Z,470
2018-06-05T12:09:57.809Z,455
2018-06-05T12:10:57.037Z,445
2018-06-05T12:11:57.815Z,415
2018-06-05T12:12:57.553Z,365
2018-06-05T12:13:57.822Z,335
2018-06-05T12:14:57.808Z,345
2018-06-05T12:15:57.826Z,440
2018-06-05T12:16:57.821Z,440
2018-06-05T12:17:58.053Z,415
2018-06-05T12:18:57.859Z,415
2018-06-05T12:19:58.079Z,545
2018-06-05T12:20:57.563Z,515
2018-06-05T12:21:57.820Z,520
2018-06-05T12:22:57.315Z,550
2018-06-05T12:23:57.835Z,565
2018-06-05T12:24:58.098Z,560
2018-06-05T12:25:58.099Z,530
2018-06-05T12:26:58.092Z,500
2018-06-05T12:27:57.567Z,470
2018-06-05T12:28:57.316Z,435
2018-06-05T12:29:58.087Z,415
2018-06-05T12:30:58.268Z,375
2018-06-05T12:31:57.832Z,320
2018-06-05T12:32:57.324Z,260
2018-06-05T12:33:57.321Z,255
2018-06-05T12:34:58.367Z,335
2018-06-05T12:35:57.365Z,330
2018-06-05T12:36:57.601Z,310
2018-06-05T12:37:58.245Z,305
2018-06-05T12:38:57.890Z,340
2018-06-05T12:39:57.838Z,345
2018-06-05T12:40:57.599Z,460
2018-06-05T12:41:58.179Z,510
2018-06-05T12:42:57.593Z,480
2018-06-05T12:43:57.912Z,430
2018-06-05T12:44:57.844Z,395
2018-06-05T12:45:57.593Z,385
2018-06-05T12:46:58.652Z,425
2018-06-05T12:47:57.668Z,405
2018-06-05T12:48:58.226Z,385
2018-06-05T12:49:57.596Z,455
2018-06-05T12:50:58.292Z,415
2018-06-05T12:51:57.947Z,360
2018-06-05T12:52:57.778Z,370
2018-06-05T12:53:57.597Z,360
2018-06-05T12:54:57.856Z,285
2018-06-05T12:55:57.880Z,220
2018-06-05T12:56:57.872Z,220
2018-06-05T12:57:58.228Z,235
2018-06-05T12:58:57.858Z,255
2018-06-05T12:59:58.117Z,275
2018-06-05T13:00:57.347Z,305
2018-06-05T13:01:57.613Z,320
2018-06-05T13:02:57.605Z,325
2018-06-05T13:03:57.870Z,265
2018-06-05T13:04:57.605Z,240
2018-06-05T13:05:58.121Z,240
2018-06-05T13:06:57.868Z,265
2018-06-05T13:07:57.352Z,330
2018-06-05T13:08:58.117Z,400
2018-06-05T13:09:57.864Z,415
2018-06-05T13:10:57.864Z,485
2018-06-05T13:11:58.047Z,540
2018-06-05T13:12:57.868Z,520
2018-06-05T13:13:57.870Z,440
2018-06-05T13:14:57.618Z,405
2018-06-05T13:15:57.614Z,380
2018-06-05T13:16:57.614Z,350
2018-06-05T13:17:57.874Z,375
2018-06-05T13:18:57.874Z,435
2018-06-05T13:19:57.878Z,550
2018-06-05T13:20:57.619Z,550
2018-06-05T13:21:58.128Z,495
2018-06-05T13:22:59.108Z,480
2018-06-05T13:23:57.629Z,520
2018-06-05T13:24:58.134Z,475
2018-06-05T13:25:58.131Z,450
2018-06-05T13:26:57.367Z,375
2018-06-05T13:27:57.621Z,345
2018-06-05T13:28:57.624Z,380
2018-06-05T13:29:58.375Z,410
2018-06-05T13:30:57.368Z,415
2018-06-05T13:31:58.140Z,415
2018-06-05T13:32:57.629Z,405
2018-06-05T13:33:57.881Z,400
2018-06-05T13:34:58.189Z,470
2018-06-05T13:35:57.883Z,470
2018-06-05T13:36:57.979Z,415
2018-06-05T13:37:58.063Z,460
2018-06-05T13:38:58.292Z,450
2018-06-05T13:39:58.033Z,420
2018-06-05T13:40:58.143Z,450
2018-06-05T13:41:57.914Z,445
2018-06-05T13:42:58.468Z,425
2018-06-05T13:43:59.027Z,395
2018-06-05T13:44:58.130Z,370
2018-06-05T13:45:58.429Z,305
2018-06-05T13:46:57.971Z,305
2018-06-05T13:47:58.333Z,345
2018-06-05T13:48:58.666Z,345
2018-06-05T13:49:58.246Z,350
2018-06-05T13:50:57.968Z,295
2018-06-05T13:51:58.146Z,335
2018-06-05T13:52:57.639Z,390
2018-06-05T13:53:58.768Z,400
2018-06-05T13:54:57.666Z,370
2018-06-05T13:55:57.643Z,310
2018-06-05T13:56:57.902Z,325
2018-06-05T13:57:57.897Z,355
2018-06-05T13:58:57.663Z,415
2018-06-05T13:59:58.154Z,410
2018-06-05T14:00:57.960Z,370
2018-06-05T14:01:58.163Z,385
2018-06-05T14:02:58.173Z,355
2018-06-05T14:03:57.906Z,340
2018-06-05T14:04:57.900Z,315